Time;durP1;ratioP1;P1;durP2;ratioP2;P2;SDS_P1;SDS_P2;PMS_P1;PMS_P2;Temp;Humidity;BMP_temperature;BMP_pressure;BME280_temperature;BME280_humidity;BME280_pressure;Samples;Min_cycle;Max_cycle;Signal;HPM_P1;HPM_P2
2022/04/22 00:00:48;;;;;;;49.70;31.90;;;;;;;7.80;69.11;98439.27;105937;1277;113196;-70
2022/04/22 00:03:16;;;;;;;47.70;29.50;;;;;;;7.79;69.01;98435.97;105864;1278;98972;-68
2022/04/22 00:05:44;;;;;;;48.60;30.50;;;;;;;7.80;69.11;98435.02;105782;1278;108377;-68
2022/04/22 00:08:12;;;;;;;50.90;30.70;;;;;;;7.81;69.19;98431.05;105803;1277;99311;-67
2022/04/22 00:11:29;;;;;;;50.10;29.50;;;;;;;7.81;69.18;98425.02;105797;1277;99132;-68
2022/04/22 00:13:28;;;;;;;46.50;29.40;;;;;;;7.83;69.30;98425.40;105795;1277;112389;-67
2022/04/22 00:15:56;;;;;;;48.10;28.10;;;;;;;7.87;69.33;98427.46;105801;1281;99249;-66
2022/04/22 00:18:24;;;;;;;48.30;29.60;;;;;;;7.88;69.31;98423.66;105808;1277;107737;-66
2022/04/22 00:20:52;;;;;;;46.80;28.90;;;;;;;7.90;69.30;98426.14;105871;1278;99279;-67
2022/04/22 00:23:20;;;;;;;47.40;28.40;;;;;;;7.92;69.26;98423.02;105769;1277;99137;-66
2022/04/22 00:25:48;;;;;;;46.10;28.10;;;;;;;7.90;69.29;98419.81;105774;1277;113347;-66
2022/04/22 00:28:16;;;;;;;44.80;28.00;;;;;;;7.88;69.12;98418.52;105803;1278;99226;-67
2022/04/22 00:30:45;;;;;;;44.90;27.50;;;;;;;7.89;69.23;98418.50;105819;1278;108355;-66
2022/04/22 00:33:15;;;;;;;48.10;28.90;;;;;;;7.90;69.36;98415.02;105758;1281;99369;-68
2022/04/22 00:35:44;;;;;;;44.20;26.60;;;;;;;7.94;69.43;98414.46;105869;1280;99203;-67
2022/04/22 00:38:12;;;;;;;46.20;29.40;;;;;;;7.96;69.45;98416.20;105785;1277;112811;-67
2022/04/22 00:40:41;;;;;;;49.40;28.60;;;;;;;7.99;69.42;98413.35;105754;1278;99269;-67
2022/04/22 00:43:23;;;;;;;47.60;28.90;;;;;;;8.01;69.30;98410.52;105738;1281;108359;-68
2022/04/22 00:45:53;;;;;;;47.60;29.10;;;;;;;8.03;69.38;98407.02;105806;1277;99138;-69
2022/04/22 00:48:22;;;;;;;51.30;31.70;;;;;;;8.05;69.50;98407.45;105832;1277;97784;-70
2022/04/22 00:50:50;;;;;;;51.40;30.80;;;;;;;8.07;69.48;98406.99;105845;1277;112574;-70
2022/04/22 00:53:21;;;;;;;47.00;28.40;;;;;;;8.08;69.42;98405.31;105818;1277;99336;-71
2022/04/22 00:55:48;;;;;;;51.40;30.60;;;;;;;8.08;69.58;98401.08;105892;1278;107658;-68
2022/04/22 00:58:17;;;;;;;48.70;30.10;;;;;;;8.07;69.51;98398.64;105713;1278;97925;-68
2022/04/22 01:00:44;;;;;;;50.10;30.10;;;;;;;8.08;69.46;98395.05;105782;1279;99262;-69
2022/04/22 01:03:13;;;;;;;55.50;31.90;;;;;;;8.08;69.43;98397.37;105786;1278;113353;-68
2022/04/22 01:11:15;;;;;;;48.80;30.10;;;;;;;8.10;69.71;98394.22;105849;1278;99224;-70
2022/04/22 01:13:44;;;;;;;51.00;30.90;;;;;;;8.10;69.66;98391.92;105849;1278;99304;-69
2022/04/22 01:16:12;;;;;;;49.30;31.30;;;;;;;8.11;69.62;98391.64;105808;1277;112773;-68
2022/04/22 01:18:41;;;;;;;52.20;31.80;;;;;;;8.10;69.63;98395.23;105801;1277;97750;-68
2022/04/22 01:21:10;;;;;;;48.50;30.50;;;;;;;8.09;69.57;98392.88;105775;1278;107818;-69
2022/04/22 01:23:38;;;;;;;48.90;32.00;;;;;;;8.10;69.60;98391.05;105876;1278;99245;-69
2022/04/22 01:26:06;;;;;;;51.50;32.00;;;;;;;8.11;69.71;98393.44;105851;1277;99211;-69
2022/04/22 01:28:34;;;;;;;50.20;32.10;;;;;;;8.11;69.73;98394.67;105806;1277;112537;-68
2022/04/22 01:31:02;;;;;;;53.20;33.30;;;;;;;8.11;69.73;98397.97;105782;1279;99287;-69
2022/04/22 01:33:30;;;;;;;53.90;33.70;;;;;;;8.12;69.56;98395.84;105853;1277;108327;-68
2022/04/22 01:35:59;;;;;;;54.00;33.40;;;;;;;8.12;69.49;98390.73;105905;1277;99352;-68
2022/04/22 01:38:26;;;;;;;57.20;36.10;;;;;;;8.11;69.79;98383.70;105767;1277;99227;-68
2022/04/22 01:40:54;;;;;;;53.00;34.00;;;;;;;8.10;69.57;98379.22;105747;1281;113364;-69
2022/04/22 01:43:22;;;;;;;54.70;35.30;;;;;;;8.10;69.72;98375.67;105740;1277;98781;-69
2022/04/22 01:45:52;;;;;;;61.10;39.90;;;;;;;8.10;69.66;98372.63;105792;1279;108824;-68
2022/04/22 01:48:21;;;;;;;61.50;40.70;;;;;;;8.08;69.59;98372.45;105829;1281;99305;-69
2022/04/22 01:50:49;;;;;;;59.10;39.50;;;;;;;8.07;69.69;98375.02;105790;1278;99295;-68
2022/04/22 01:53:17;;;;;;;61.40;42.00;;;;;;;8.05;69.61;98371.92;105782;1277;112914;-70
2022/04/22 01:55:46;;;;;;;60.30;42.30;;;;;;;8.03;69.70;98375.65;105826;1278;99274;-70
2022/04/22 01:58:14;;;;;;;64.90;44.90;;;;;;;8.00;69.66;98370.35;105863;1277;107743;-69
2022/04/22 02:00:42;;;;;;;68.10;45.00;;;;;;;7.97;69.59;98370.92;105805;1279;99311;-69
2022/04/22 02:03:12;;;;;;;65.20;45.10;;;;;;;7.94;69.64;98366.05;105754;1277;99353;-68
2022/04/22 02:05:40;;;;;;;69.20;47.70;;;;;;;7.92;69.73;98366.73;105765;1277;115917;-70
2022/04/22 02:08:09;;;;;;;66.30;46.10;;;;;;;7.90;69.83;98360.11;105759;1277;99325;-68
2022/04/22 02:10:37;;;;;;;69.10;47.50;;;;;;;7.89;69.79;98360.36;105743;1277;108399;-68
2022/04/22 02:13:05;;;;;;;67.70;46.20;;;;;;;7.88;69.79;98358.84;105716;1281;99320;-67
2022/04/22 02:15:33;;;;;;;66.10;46.10;;;;;;;7.88;69.98;98356.22;105676;1278;97821;-70
2022/04/22 02:18:01;;;;;;;68.20;46.80;;;;;;;7.87;69.97;98355.08;105701;1278;113476;-69
2022/04/22 02:20:29;;;;;;;64.20;45.30;;;;;;;7.85;69.81;98357.91;105845;1277;99202;-68
2022/04/22 02:22:57;;;;;;;69.60;47.10;;;;;;;7.85;69.91;98359.06;105777;1278;108477;-69
2022/04/22 02:25:25;;;;;;;64.10;45.30;;;;;;;7.84;69.99;98357.78;105749;1279;99333;-68
2022/04/22 02:30:40;;;;;;;66.20;45.40;;;;;;;7.84;70.19;98354.92;105761;1277;113405;-68
2022/04/22 02:33:07;;;;;;;67.60;44.00;;;;;;;7.84;69.97;98351.73;105788;1277;99256;-69
2022/04/22 02:35:35;;;;;;;68.40;46.00;;;;;;;7.84;69.91;98345.20;105716;1278;109283;-68
2022/04/22 02:38:03;;;;;;;65.10;44.40;;;;;;;7.85;70.16;98350.44;105788;1278;99902;-69
2022/04/22 02:46:04;;;;;;;62.60;42.70;;;;;;;7.86;70.24;98343.66;105807;1277;99356;-69
2022/04/22 02:48:33;;;;;;;64.20;42.80;;;;;;;7.86;70.13;98342.74;105921;1277;107754;-69
2022/04/22 02:51:01;;;;;;;63.60;42.80;;;;;;;7.87;70.13;98343.98;105692;1278;98984;-70
2022/04/22 02:53:29;;;;;;;68.90;44.70;;;;;;;7.87;70.33;98346.55;105881;1277;99196;-69
2022/04/22 02:55:58;;;;;;;66.00;43.90;;;;;;;7.88;70.18;98345.96;105835;1277;113355;-70
2022/04/22 02:58:26;;;;;;;66.90;44.00;;;;;;;7.87;70.21;98344.98;105820;1277;99278;-68
2022/04/22 03:00:54;;;;;;;65.10;43.10;;;;;;;7.89;70.27;98346.80;105794;1277;108448;-68
2022/04/22 03:03:22;;;;;;;64.70;41.90;;;;;;;7.90;70.16;98346.39;105888;1277;99196;-69
2022/04/22 03:05:51;;;;;;;64.10;42.30;;;;;;;7.91;70.34;98352.82;105917;1277;99900;-69
2022/04/22 03:08:19;;;;;;;67.40;42.60;;;;;;;7.93;70.29;98357.16;105957;1277;112943;-67
2022/04/22 03:10:48;;;;;;;69.50;43.30;;;;;;;7.93;70.28;98358.39;105867;1277;99241;-68
2022/04/22 03:13:16;;;;;;;66.60;43.40;;;;;;;7.94;70.36;98361.30;105876;1279;108385;-69
2022/04/22 03:15:45;;;;;;;64.10;42.40;;;;;;;7.95;70.20;98358.56;105947;1277;99088;-69
2022/04/22 03:18:12;;;;;;;65.00;41.10;;;;;;;7.95;70.39;98357.47;105961;1277;100283;-68
2022/04/22 03:20:40;;;;;;;66.80;41.70;;;;;;;7.95;70.24;98355.02;105920;1277;112742;-69
2022/04/22 03:23:08;;;;;;;64.80;41.70;;;;;;;7.95;70.13;98353.09;105934;1277;96617;-68
2022/04/22 03:25:37;;;;;;;68.00;43.80;;;;;;;7.96;70.19;98352.81;105901;1277;108400;-71
2022/04/22 03:28:05;;;;;;;70.40;45.10;;;;;;;7.97;70.34;98348.84;105952;1277;100064;-71
2022/04/22 03:30:34;;;;;;;69.30;42.30;;;;;;;7.98;70.34;98353.70;105920;1277;99121;-69
2022/04/22 03:33:02;;;;;;;69.40;42.60;;;;;;;7.99;70.34;98350.86;105858;1279;112040;-69
2022/04/22 03:35:31;;;;;;;67.30;41.60;;;;;;;7.99;70.38;98349.79;105934;1277;99427;-69
2022/04/22 03:37:59;;;;;;;69.60;45.60;;;;;;;7.98;70.51;98349.85;105963;1277;107736;-69
2022/04/22 03:40:27;;;;;;;69.40;43.50;;;;;;;7.98;70.47;98348.08;105891;1277;99347;-68
2022/04/22 03:42:55;;;;;;;64.90;41.60;;;;;;;7.99;70.54;98349.23;105437;1277;539008;-69
2022/04/22 03:45:23;;;;;;;69.30;41.10;;;;;;;7.99;70.41;98345.00;105700;1278;113364;-67
2022/04/22 03:47:51;;;;;;;67.70;41.20;;;;;;;7.98;70.35;98345.06;105674;1277;99432;-71
2022/04/22 03:50:19;;;;;;;70.30;42.80;;;;;;;7.98;70.47;98343.89;105632;1279;108326;-70
2022/04/22 03:52:47;;;;;;;68.50;42.20;;;;;;;7.98;70.25;98344.37;105827;1277;96675;-70
2022/04/22 03:55:14;;;;;;;71.30;43.60;;;;;;;7.99;70.49;98342.21;105932;1279;99252;-70
2022/04/22 04:00:30;;;;;;;68.70;41.40;;;;;;;8.00;70.46;98343.55;105669;1278;99241;-70
2022/04/22 04:03:01;;;;;;;65.60;39.90;;;;;;;8.00;70.52;98343.69;105753;1279;105458;-71
2022/04/22 04:05:31;;;;;;;67.20;42.30;;;;;;;8.01;70.67;98347.90;105794;1277;99339;-71
2022/04/22 04:07:59;;;;;;;66.80;41.30;;;;;;;7.99;70.53;98347.81;105908;1277;99317;-70
2022/04/22 04:16:00;;;;;;;70.00;39.70;;;;;;;8.00;70.59;98354.44;105897;1279;107769;-70
2022/04/22 04:18:31;;;;;;;68.30;39.50;;;;;;;7.99;70.64;98351.16;105883;1279;99212;-70
2022/04/22 04:23:49;;;;;;;63.70;38.50;;;;;;;7.96;70.69;98349.80;105940;1279;112767;-69
2022/04/22 04:26:18;;;;;;;64.00;38.00;;;;;;;7.94;70.61;98350.30;105985;1279;99233;-68
2022/04/22 04:28:48;;;;;;;66.80;37.80;;;;;;;7.93;70.77;98351.98;105845;1279;107734;-68
2022/04/22 04:31:19;;;;;;;67.70;39.50;;;;;;;7.95;70.80;98352.20;105855;1279;97452;-71
2022/04/22 04:33:49;;;;;;;63.50;37.30;;;;;;;7.97;70.76;98352.40;105866;1279;96640;-66
2022/04/22 04:36:19;;;;;;;68.90;38.70;;;;;;;7.97;70.81;98347.25;105850;1279;114210;-71
2022/04/22 04:38:47;;;;;;;71.70;39.30;;;;;;;8.00;70.79;98345.31;105695;1279;99343;-71
2022/04/22 04:41:15;;;;;;;69.70;39.90;;;;;;;8.02;70.88;98341.04;105793;1279;108701;-72
2022/04/22 04:43:43;;;;;;;67.90;40.00;;;;;;;8.05;70.84;98339.46;105712;1279;99799;-73
2022/04/22 04:46:11;;;;;;;66.50;37.50;;;;;;;8.07;70.89;98341.43;105779;1278;99272;-72
2022/04/22 04:48:39;;;;;;;62.00;37.40;;;;;;;8.09;70.85;98342.19;105726;1279;112385;-70
2022/04/22 04:51:07;;;;;;;63.80;35.30;;;;;;;8.10;70.91;98343.14;105738;1278;99347;-71
2022/04/22 04:53:35;;;;;;;62.50;34.00;;;;;;;8.12;70.93;98345.30;105765;1279;107751;-70
2022/04/22 04:56:04;;;;;;;62.80;34.30;;;;;;;8.14;70.94;98346.20;105831;1279;99256;-69
2022/04/22 04:58:32;;;;;;;62.20;33.40;;;;;;;8.16;71.04;98351.35;105823;1279;99253;-70
2022/04/22 05:01:00;;;;;;;58.40;32.40;;;;;;;8.19;70.92;98358.77;105716;1279;113454;-69
2022/04/22 05:03:28;;;;;;;57.70;30.70;;;;;;;8.19;70.81;98356.05;105761;1279;99328;-70
2022/04/22 05:05:56;;;;;;;57.70;32.30;;;;;;;8.20;70.91;98353.85;105844;1278;107727;-70
2022/04/22 05:08:26;;;;;;;55.10;30.60;;;;;;;8.21;71.00;98349.77;105799;1279;99338;-69
2022/04/22 05:10:57;;;;;;;53.50;30.40;;;;;;;8.22;71.02;98350.38;105643;1279;96590;-71
2022/04/22 05:13:25;;;;;;;56.20;29.60;;;;;;;8.24;71.01;98348.17;105848;1277;112785;-69
2022/04/22 05:15:55;;;;;;;55.40;30.60;;;;;;;8.24;70.94;98349.70;105944;1277;99288;-71
2022/04/22 05:18:25;;;;;;;58.20;30.30;;;;;;;8.25;71.07;98351.08;105805;1277;107941;-70
2022/04/22 05:20:53;;;;;;;52.60;27.70;;;;;;;8.25;71.00;98353.86;105751;1278;99486;-72
2022/04/22 05:23:21;;;;;;;52.90;28.80;;;;;;;8.28;71.10;98358.63;105798;1277;99229;-70
2022/04/22 05:25:50;;;;;;;56.30;30.30;;;;;;;8.30;71.05;98357.95;105657;1278;112795;-70
2022/04/22 05:28:18;;;;;;;53.60;27.60;;;;;;;8.31;71.19;98353.40;105892;1279;99388;-69
2022/04/22 05:33:34;;;;;;;56.80;31.50;;;;;;;8.34;70.98;98362.91;105865;1279;99255;-73
2022/04/22 05:36:06;;;;;;;57.90;31.00;;;;;;;8.36;71.04;98369.64;105845;1277;96638;-70
2022/04/22 05:38:34;;;;;;;57.60;32.00;;;;;;;8.37;71.22;98367.82;105952;1277;112742;-72
2022/04/22 05:41:03;;;;;;;56.20;31.10;;;;;;;8.39;71.02;98366.64;105931;1279;97331;-69
2022/04/22 05:43:31;;;;;;;55.90;30.60;;;;;;;8.41;71.03;98366.84;105780;1277;107654;-70
2022/04/22 05:45:59;;;;;;;51.50;29.10;;;;;;;8.43;71.06;98365.07;105821;1277;99325;-71
2022/04/22 05:48:30;;;;;;;57.40;31.50;;;;;;;8.45;71.07;98365.47;105803;1277;96601;-71
2022/04/22 05:50:58;;;;;;;54.60;30.00;;;;;;;8.46;71.02;98368.20;105686;1277;112529;-71
2022/04/22 05:53:26;;;;;;;50.70;28.90;;;;;;;8.48;70.96;98372.87;105893;1277;99250;-72
2022/04/22 05:55:53;;;;;;;48.50;28.30;;;;;;;8.49;71.05;98380.71;105854;1277;105967;-71
2022/04/22 05:58:21;;;;;;;50.50;27.50;;;;;;;8.50;70.94;98379.30;105865;1277;99364;-74
2022/04/22 06:00:49;;;;;;;50.80;28.40;;;;;;;8.49;70.96;98383.20;105858;1279;99235;-76
2022/04/22 06:03:22;;;;;;;51.30;28.90;;;;;;;8.49;71.10;98376.84;105945;1277;112852;-71
2022/04/22 06:05:50;;;;;;;51.20;28.00;;;;;;;8.50;71.00;98376.08;105911;1278;99368;-74
2022/04/22 06:11:05;;;;;;;50.30;26.60;;;;;;;8.51;71.14;98389.64;105788;1277;99259;-71
2022/04/22 06:13:32;;;;;;;45.00;25.10;;;;;;;8.53;71.07;98389.98;105883;1278;99382;-70
2022/04/22 06:16:00;;;;;;;50.30;28.70;;;;;;;8.55;71.11;98389.01;105816;1277;113442;-72
2022/04/22 06:18:28;;;;;;;46.70;26.90;;;;;;;8.56;71.06;98384.09;105831;1279;99220;-71
2022/04/22 06:20:56;;;;;;;46.20;26.10;;;;;;;8.58;71.09;98381.68;105860;1277;107587;-71
2022/04/22 06:23:24;;;;;;;46.40;27.40;;;;;;;8.60;71.26;98385.08;105845;1277;97094;-70
2022/04/22 06:25:53;;;;;;;45.70;26.00;;;;;;;8.61;71.05;98389.20;106618;1277;99205;-71
2022/04/22 06:28:22;;;;;;;45.10;25.30;;;;;;;8.62;71.17;98385.96;105864;1277;112750;-71
2022/04/22 06:30:50;;;;;;;48.10;27.20;;;;;;;8.64;71.10;98380.49;105808;1279;99295;-72
2022/04/22 06:33:18;;;;;;;45.90;26.40;;;;;;;8.67;71.13;98376.05;105663;1277;107841;-73
2022/04/22 06:35:46;;;;;;;48.00;27.70;;;;;;;8.70;71.27;98377.27;105911;1277;99257;-70
2022/04/22 06:38:17;;;;;;;45.20;25.40;;;;;;;8.72;71.21;98373.36;105697;1277;97915;-71
2022/04/22 06:46:21;;;;;;;50.20;29.20;;;;;;;8.81;71.25;98370.73;105667;1277;107747;-71
2022/04/22 06:48:49;;;;;;;50.60;30.60;;;;;;;8.84;71.16;98368.25;105766;1277;99213;-71
2022/04/22 06:51:18;;;;;;;49.30;29.80;;;;;;;8.87;71.35;98371.16;105883;1277;97731;-72
2022/04/22 06:53:48;;;;;;;46.90;28.30;;;;;;;8.91;71.29;98371.94;105739;1277;112795;-73
2022/04/22 06:56:23;;;;;;;53.40;29.10;;;;;;;8.93;71.19;98373.34;105878;1277;99211;-73
2022/04/22 06:58:52;;;;;;;47.90;28.90;;;;;;;8.97;71.27;98370.66;105796;1277;107831;-72
2022/04/22 07:01:22;;;;;;;47.50;27.80;;;;;;;8.99;71.19;98371.34;105806;1277;99359;-72
2022/04/22 07:04:11;;;;;;;44.00;27.10;;;;;;;9.02;71.30;98366.20;105773;1277;99234;-72
2022/04/22 07:06:41;;;;;;;38.50;22.70;;;;;;;9.04;71.27;98367.73;105746;1277;112769;-71
2022/04/22 07:09:13;;;;;;;35.30;21.50;;;;;;;9.09;71.20;98370.57;105773;1279;99317;-72
2022/04/22 07:11:41;;;;;;;31.70;19.00;;;;;;;9.13;71.19;98370.79;105688;1277;107780;-73
2022/04/22 07:14:10;;;;;;;32.50;17.90;;;;;;;9.17;71.19;98367.42;105784;1277;98206;-72
2022/04/22 07:16:44;;;;;;;30.20;17.40;;;;;;;9.24;71.29;98364.80;105892;1277;99947;-72
2022/04/22 07:19:12;;;;;;;33.70;19.10;;;;;;;9.30;71.21;98364.33;105868;1277;112822;-72
2022/04/22 07:21:40;;;;;;;33.40;19.20;;;;;;;9.36;71.09;98363.14;105925;1277;99243;-72
2022/04/22 07:24:09;;;;;;;33.90;20.20;;;;;;;9.41;71.16;98357.27;105912;1277;107872;-73
2022/04/22 07:26:40;;;;;;;33.30;20.30;;;;;;;9.46;71.21;98358.30;105761;1278;99412;-72
2022/04/22 07:29:12;;;;;;;36.60;20.80;;;;;;;9.51;71.23;98360.06;105812;1277;96620;-72
2022/04/22 07:31:40;;;;;;;33.70;20.30;;;;;;;9.56;71.16;98362.84;105822;1277;112724;-73
2022/04/22 07:34:09;;;;;;;36.50;20.70;;;;;;;9.61;71.20;98362.40;105947;1277;99244;-73
2022/04/22 07:36:39;;;;;;;32.80;19.70;;;;;;;9.67;71.20;98364.09;105877;1277;106389;-74
2022/04/22 07:39:07;;;;;;;31.80;17.90;;;;;;;9.73;71.15;98366.64;105820;1277;99215;-72
2022/04/22 07:41:39;;;;;;;29.30;16.60;;;;;;;9.78;71.21;98366.78;105790;1279;99295;-70
2022/04/22 07:47:02;;;;;;;29.40;16.00;;;;;;;9.84;71.15;98376.37;105801;1279;99287;-73
2022/04/22 07:49:32;;;;;;;30.90;16.40;;;;;;;9.84;71.04;98378.28;105871;1277;107791;-73
2022/04/22 07:52:00;;;;;;;28.40;15.90;;;;;;;9.75;70.70;98378.31;105937;1278;99244;-71
2022/04/22 07:54:28;;;;;;;32.80;17.40;;;;;;;9.73;70.93;98379.39;105920;1278;99217;-73
2022/04/22 07:56:57;;;;;;;31.00;17.40;;;;;;;9.77;70.98;98379.27;105986;1277;112726;-73
2022/04/22 07:59:28;;;;;;;27.60;16.10;;;;;;;9.80;70.91;98376.48;105897;1277;97572;-73
2022/04/22 08:01:59;;;;;;;29.70;16.50;;;;;;;9.84;70.98;98375.09;105858;1277;107710;-72
2022/04/22 08:04:28;;;;;;;27.60;15.50;;;;;;;9.91;71.00;98372.28;105787;1277;99295;-74
2022/04/22 08:06:56;;;;;;;28.40;16.00;;;;;;;9.95;70.98;98374.58;105807;1277;99941;-70
2022/04/22 08:09:45;;;;;;;28.70;15.90;;;;;;;9.97;70.90;98378.27;105870;1278;112848;-73
2022/04/22 08:12:18;;;;;;;27.20;15.40;;;;;;;10.00;70.89;98377.34;105910;1277;98970;-71
2022/04/22 08:14:46;;;;;;;30.00;16.70;;;;;;;10.02;70.90;98381.08;105827;1279;107859;-75
2022/04/22 08:17:16;;;;;;;29.50;15.90;;;;;;;10.03;70.82;98382.96;105788;1279;98320;-73
2022/04/22 08:19:46;;;;;;;28.90;15.90;;;;;;;10.06;70.89;98384.54;105870;1279;99168;-73
2022/04/22 08:22:17;;;;;;;30.10;17.70;;;;;;;10.08;70.90;98386.29;105856;1279;112900;-73
2022/04/22 08:24:45;;;;;;;30.30;17.10;;;;;;;10.11;70.85;98386.93;105818;1279;99245;-72
2022/04/22 08:27:13;;;;;;;31.10;18.10;;;;;;;10.11;70.83;98385.15;105828;1279;107712;-71
2022/04/22 08:29:41;;;;;;;28.70;16.80;;;;;;;10.11;70.74;98388.50;105842;1278;99336;-72
2022/04/22 08:32:10;;;;;;;30.30;17.10;;;;;;;10.06;70.69;98387.51;105892;1278;97195;-72
2022/04/22 08:34:40;;;;;;;36.90;21.80;;;;;;;10.04;70.69;98391.79;105859;1278;112931;-73
2022/04/22 08:37:08;;;;;;;38.80;22.30;;;;;;;10.00;70.70;98394.18;105829;1279;99354;-73
2022/04/22 08:39:36;;;;;;;38.50;23.00;;;;;;;9.87;70.52;98399.11;105903;1279;107808;-73
2022/04/22 08:42:05;;;;;;;39.20;24.60;;;;;;;9.77;70.69;98399.71;105887;1278;99298;-71
2022/04/22 08:44:54;;;;;;;36.70;22.00;;;;;;;9.76;70.77;98392.39;105885;1279;99327;-72
2022/04/22 08:50:16;;;;;;;39.00;22.00;;;;;;;9.67;70.70;98395.05;105703;1279;98213;-71
2022/04/22 08:52:56;;;;;;;38.40;22.70;;;;;;;9.62;70.68;98396.33;105820;1278;108180;-71
2022/04/22 08:55:26;;;;;;;39.60;23.50;;;;;;;9.60;70.75;98399.85;105869;1279;99278;-71
2022/04/22 08:57:56;;;;;;;39.80;23.50;;;;;;;9.60;70.72;98401.27;105870;1279;99294;-70
2022/04/22 09:00:29;;;;;;;40.00;24.30;;;;;;;9.59;70.68;98403.66;105938;1279;112766;-72
2022/04/22 09:02:57;;;;;;;40.50;23.90;;;;;;;9.57;70.69;98404.73;105928;1279;99010;-70
2022/04/22 09:05:26;;;;;;;40.10;22.60;;;;;;;9.50;70.54;98400.27;105714;1278;107827;-71
2022/04/22 09:07:56;;;;;;;37.50;22.50;;;;;;;9.41;70.48;98404.01;105810;1279;97801;-71
2022/04/22 09:10:23;;;;;;;39.80;23.30;;;;;;;9.33;70.57;98403.23;105707;1279;99219;-72
2022/04/22 09:12:57;;;;;;;38.00;22.60;;;;;;;9.26;70.61;98402.13;105573;1279;112720;-71
2022/04/22 09:15:34;;;;;;;37.70;22.10;;;;;;;9.21;70.53;98397.36;105676;1279;99245;-73
2022/04/22 09:18:29;;;;;;;32.40;19.50;;;;;;;9.18;70.68;98393.92;105598;1279;106790;-72
2022/04/22 09:21:02;;;;;;;37.20;22.70;;;;;;;9.14;70.57;98395.30;105741;1279;99217;-73
2022/04/22 09:23:37;;;;;;;40.20;22.50;;;;;;;9.09;70.59;98393.36;105745;1279;97325;-70
2022/04/22 09:26:23;;;;;;;38.50;23.20;;;;;;;9.06;70.58;98392.23;105498;1279;113333;-73
2022/04/22 09:28:58;;;;;;;39.20;22.80;;;;;;;9.07;70.81;98389.29;105658;1279;99234;-72
2022/04/22 09:31:27;;;;;;;37.50;21.90;;;;;;;9.10;70.85;98388.54;105313;1278;106438;-72
2022/04/22 09:33:56;;;;;;;38.10;23.00;;;;;;;9.15;70.81;98390.06;105788;1277;99932;-71
2022/04/22 09:44:58;;;;;;;34.10;19.60;;;;;;;9.26;70.62;98382.35;105735;1277;108530;-70
2022/04/22 09:47:32;;;;;;;35.70;21.30;;;;;;;9.23;70.57;98385.58;105814;1277;99200;-71
2022/04/22 09:50:05;;;;;;;36.90;21.10;;;;;;;9.21;70.62;98389.09;105839;1278;99344;-72
2022/04/22 09:52:38;;;;;;;32.70;20.30;;;;;;;9.21;70.70;98390.48;105820;1278;112550;-71
2022/04/22 09:55:09;;;;;;;35.80;20.90;;;;;;;9.23;70.73;98390.88;105927;1279;98370;-72
2022/04/22 09:57:53;;;;;;;37.60;21.40;;;;;;;9.27;70.76;98388.47;105763;1279;107853;-72
2022/04/22 10:00:23;;;;;;;36.40;22.10;;;;;;;9.28;70.67;98388.73;105861;1277;99231;-72
2022/04/22 10:02:58;;;;;;;38.40;23.20;;;;;;;9.22;70.53;98395.36;105731;1279;99360;-72
2022/04/22 10:05:31;;;;;;;37.00;22.30;;;;;;;9.17;70.68;98393.65;105959;1278;112853;-71
2022/04/22 10:08:04;;;;;;;39.40;22.30;;;;;;;9.19;70.69;98398.26;105807;1279;99280;-71
2022/04/22 10:10:57;;;;;;;39.70;23.30;;;;;;;9.17;70.71;98401.25;105702;1279;107227;-70
2022/04/22 10:13:41;;;;;;;44.70;24.40;;;;;;;9.17;70.83;98402.64;105861;1278;99314;-72
2022/04/22 10:16:12;;;;;;;42.40;24.80;;;;;;;9.23;70.92;98406.22;105638;1279;97991;-70
2022/04/22 10:18:42;;;;;;;39.60;24.60;;;;;;;9.30;70.85;98399.70;105870;1277;112074;-71
2022/04/22 10:21:10;;;;;;;38.40;23.20;;;;;;;9.36;70.91;98395.16;105827;1277;98987;-71
2022/04/22 10:23:48;;;;;;;38.10;23.40;;;;;;;9.42;70.86;98394.17;105843;1278;107675;-69
2022/04/22 10:26:18;;;;;;;37.80;23.70;;;;;;;9.48;70.89;98393.73;105777;1278;99332;-70
2022/04/22 10:28:48;;;;;;;40.40;23.90;;;;;;;9.52;70.81;98387.92;105813;1279;97773;-72
2022/04/22 10:31:17;;;;;;;39.30;23.30;;;;;;;9.54;70.80;98385.29;105622;1277;113662;-70
2022/04/22 10:33:48;;;;;;;39.50;23.70;;;;;;;9.53;70.74;98380.56;106349;1276;97741;-71
2022/04/22 10:36:24;;;;;;;38.60;23.00;;;;;;;9.53;70.79;98378.29;105653;1276;108442;-71
2022/04/22 10:38:52;;;;;;;37.70;21.80;;;;;;;9.53;70.67;98382.17;105444;1277;99915;-70
2022/04/22 10:41:23;;;;;;;35.00;19.90;;;;;;;9.47;70.65;98384.80;105528;1277;99963;-70
2022/04/22 10:49:46;;;;;;;41.80;23.80;;;;;;;9.30;70.85;98390.85;105525;1277;108330;-71
2022/04/22 10:52:19;;;;;;;38.20;21.90;;;;;;;9.35;70.75;98395.42;105595;1276;99438;-71
2022/04/22 10:54:54;;;;;;;38.80;23.70;;;;;;;9.33;70.71;98395.56;105614;1278;99720;-69
2022/04/22 10:57:31;;;;;;;43.00;24.90;;;;;;;9.31;70.75;98397.02;105607;1277;112852;-69
2022/04/22 11:00:11;;;;;;;40.30;24.40;;;;;;;9.31;70.92;98387.43;105578;1279;97870;-73
2022/04/22 11:02:43;;;;;;;40.80;23.40;;;;;;;9.38;70.86;98393.27;105566;1279;108111;-70
2022/04/22 11:05:22;;;;;;;34.10;19.80;;;;;;;9.40;70.91;98392.73;105772;1277;99262;-71
2022/04/22 11:07:50;;;;;;;32.90;17.60;;;;;;;9.43;70.91;98394.15;105587;1277;99317;-70
2022/04/22 11:10:41;;;;;;;31.30;17.80;;;;;;;9.44;70.91;98393.32;105580;1278;113402;-69
2022/04/22 11:13:40;;;;;;;28.60;15.00;;;;;;;9.44;70.81;98389.63;105178;1279;99282;-69
2022/04/22 11:16:11;;;;;;;24.40;12.50;;;;;;;9.41;70.94;98393.22;105647;1277;108414;-70
2022/04/22 11:18:43;;;;;;;23.40;12.30;;;;;;;9.36;70.92;98403.67;105885;1277;99225;-70
2022/04/22 11:21:16;;;;;;;24.90;12.60;;;;;;;9.34;70.92;98404.40;105752;1277;99242;-70
2022/04/22 11:23:45;;;;;;;21.70;10.40;;;;;;;9.30;70.91;98401.69;105788;1279;112859;-69
2022/04/22 11:26:14;;;;;;;23.50;11.50;;;;;;;9.25;70.84;98401.19;105754;1277;99266;-70
2022/04/22 11:28:47;;;;;;;24.40;11.20;;;;;;;9.23;70.90;98405.55;105628;1279;107591;-71
2022/04/22 11:31:15;;;;;;;22.10;10.20;;;;;;;9.20;70.91;98408.63;105746;1277;97920;-68
2022/04/22 11:33:53;;;;;;;22.30;11.40;;;;;;;9.15;70.86;98410.09;105889;1278;99703;-71
2022/04/22 11:36:24;;;;;;;20.90;9.40;;;;;;;9.11;70.86;98407.20;105819;1278;112677;-71
2022/04/22 11:38:55;;;;;;;21.10;9.00;;;;;;;9.06;70.82;98404.23;105707;1278;99241;-70
2022/04/22 11:41:23;;;;;;;18.10;7.60;;;;;;;9.00;70.79;98405.42;105821;1277;109242;-73
2022/04/22 11:43:52;;;;;;;18.60;8.60;;;;;;;8.93;70.71;98406.98;105813;1277;99205;-71
2022/04/22 11:46:20;;;;;;;18.20;8.40;;;;;;;8.84;70.74;98401.11;105720;1277;99767;-71
2022/04/22 11:48:53;;;;;;;20.60;8.10;;;;;;;8.76;70.76;98397.25;105670;1278;113182;-70
2022/04/22 11:51:21;;;;;;;17.50;7.10;;;;;;;8.69;70.77;98393.77;105703;1279;99325;-70
2022/04/22 11:53:53;;;;;;;19.40;7.30;;;;;;;8.62;70.79;98390.01;105844;1278;107436;-71
2022/04/22 11:56:24;;;;;;;18.60;7.40;;;;;;;8.59;70.90;98386.54;105644;1278;99385;-73
2022/04/22 11:58:54;;;;;;;19.00;7.40;;;;;;;8.58;70.93;98388.54;105697;1276;96631;-71
2022/04/22 12:10:04;;;;;;;12.90;5.90;;;;;;;8.43;70.84;98383.27;105834;1277;99495;-72
2022/04/22 12:12:34;;;;;;;17.20;7.10;;;;;;;8.44;70.79;98381.46;107007;1278;99198;-70
2022/04/22 12:15:06;;;;;;;15.50;6.70;;;;;;;8.39;70.73;98380.06;105774;1278;112855;-70
2022/04/22 12:17:33;;;;;;;18.40;7.30;;;;;;;8.40;70.93;98382.31;105788;1278;97422;-69
2022/04/22 12:20:03;;;;;;;17.40;7.80;;;;;;;8.39;70.88;98381.29;105769;1277;107553;-71
2022/04/22 12:22:33;;;;;;;19.70;7.70;;;;;;;8.37;70.94;98382.30;105834;1278;100314;-70
2022/04/22 12:25:06;;;;;;;15.10;7.00;;;;;;;8.32;70.91;98377.55;105815;1278;97806;-72
2022/04/22 12:27:36;;;;;;;19.10;8.30;;;;;;;8.29;70.91;98375.67;105818;1279;113501;-71
2022/04/22 12:30:09;;;;;;;18.50;8.20;;;;;;;8.29;70.95;98372.15;105774;1278;99208;-70
2022/04/22 12:32:39;;;;;;;17.50;7.80;;;;;;;8.27;70.96;98369.32;105747;1278;107811;-71